createdAt,value
2023-04-15T00:00:24.415Z,100267.72
2023-04-15T00:04:27.132Z,100279.06
2023-04-15T00:08:35.744Z,100275.56
2023-04-15T00:12:39.966Z,100284.34
2023-04-15T00:16:46.393Z,100284.28
2023-04-15T00:20:47.701Z,100293.72
2023-04-15T00:24:50.987Z,100278.69
2023-04-15T00:28:55.546Z,100282.81
2023-04-15T00:32:59.707Z,100290.06
2023-04-15T00:37:01.430Z,100294.97
2023-04-15T00:41:04.123Z,100300.06
2023-04-15T00:45:05.465Z,100314.28
2023-04-15T00:49:09.178Z,100306.72
2023-04-15T00:53:16.399Z,100302.91
2023-04-15T00:57:20.216Z,100317.84
2023-04-15T01:01:24.970Z,100316.53
2023-04-15T01:05:30.090Z,100321.25
2023-04-15T01:09:31.550Z,100320.03
2023-04-15T01:13:32.499Z,100316.84
2023-04-15T01:17:33.707Z,100303.75
2023-04-15T01:21:36.138Z,100311.50
2023-04-15T01:25:43.433Z,100318.63
2023-04-15T01:29:44.594Z,100334.28
2023-04-15T01:33:55.166Z,100350.72
2023-04-15T01:37:57.349Z,100357.47
2023-04-15T01:42:03.512Z,100353.50
2023-04-15T01:46:11.859Z,100354.63
2023-04-15T01:50:14.834Z,100347.66
2023-04-15T01:54:15.496Z,100347.75
2023-04-15T01:58:28.006Z,100346.03
2023-04-15T02:02:31.304Z,100362.34
2023-04-15T02:06:32.763Z,100357.84
2023-04-15T02:10:38.175Z,100344.91
2023-04-15T02:14:45.821Z,100342.69
2023-04-15T02:18:49.741Z,100329.34
2023-04-15T02:22:53.414Z,100327.25
2023-04-15T02:26:54.719Z,100322.69
2023-04-15T02:31:04.983Z,100349.00
2023-04-15T02:35:08.837Z,100349.19
2023-04-15T02:39:10.632Z,100360.69
2023-04-15T02:43:11.721Z,100371.75
2023-04-15T02:47:15.127Z,100355.53
2023-04-15T02:51:17.912Z,100330.22
2023-04-15T02:55:19.374Z,100302.34
2023-04-15T02:59:22.906Z,100329.22
2023-04-15T03:03:29.625Z,100357.00
2023-04-15T03:07:31.662Z,100366.44
2023-04-15T03:11:33.643Z,100365.75
2023-04-15T03:15:35.725Z,100347.81
2023-04-15T03:19:51.956Z,100337.44
2023-04-15T03:23:53.199Z,100329.78
2023-04-15T03:27:53.561Z,100356.09
2023-04-15T03:32:02.238Z,100377.09
2023-04-15T03:36:06.718Z,100401.50
2023-04-15T03:40:14.871Z,100411.97
2023-04-15T03:44:23.086Z,100400.72
2023-04-15T03:48:24.592Z,100406.00
2023-04-15T03:52:27.768Z,100400.78
2023-04-15T03:56:31.581Z,100402.38
2023-04-15T04:00:42.864Z,100405.81
2023-04-15T04:04:47.401Z,100403.13
2023-04-15T04:08:58.914Z,100402.22
2023-04-15T04:13:10.567Z,100393.13
2023-04-15T04:17:12.627Z,100400.72
2023-04-15T04:21:14.340Z,100399.50
2023-04-15T04:25:21.535Z,100409.00
2023-04-15T04:29:32.993Z,100390.91
2023-04-15T04:33:36.908Z,100389.31
2023-04-15T04:42:40.190Z,100418.03
2023-04-15T04:46:56.188Z,100429.00
2023-04-15T04:51:01.174Z,100444.28
2023-04-15T04:55:03.192Z,100437.75
2023-04-15T04:59:09.818Z,100435.84
2023-04-15T05:03:13.401Z,100447.41
2023-04-15T05:07:17.307Z,100435.84
2023-04-15T05:11:42.174Z,100463.16
2023-04-15T05:15:50.865Z,100460.97
2023-04-15T05:19:58.368Z,100450.59
2023-04-15T05:24:10.262Z,100467.31
2023-04-15T05:28:13.256Z,100477.03
2023-04-15T05:32:19.998Z,100483.41
2023-04-15T05:36:27.232Z,100485.91
2023-04-15T05:40:38.829Z,100490.81
2023-04-15T05:44:49.607Z,100494.13
2023-04-15T05:48:54.657Z,100483.06
2023-04-15T05:53:04.825Z,100491.09
2023-04-15T05:57:06.286Z,100488.47
2023-04-15T06:01:10.310Z,100489.00
2023-04-15T06:05:13.499Z,100482.19
2023-04-15T06:09:40.382Z,100483.31
2023-04-15T06:14:44.891Z,100477.53
2023-04-15T06:23:56.789Z,100487.19
2023-04-15T06:28:26.900Z,100495.13
2023-04-15T06:32:32.906Z,100499.88
2023-04-15T06:36:34.497Z,100496.44
2023-04-15T06:40:37.235Z,100498.44
2023-04-15T06:44:47.539Z,100499.84
2023-04-15T06:48:49.231Z,100518.59
2023-04-15T06:52:56.009Z,100516.97
2023-04-15T06:56:57.372Z,100517.09
2023-04-15T07:01:00.407Z,100522.56
2023-04-15T07:05:01.108Z,100511.38
2023-04-15T07:09:02.108Z,100512.03
2023-04-15T07:13:07.277Z,100514.34
2023-04-15T07:17:12.983Z,100514.44
2023-04-15T07:21:13.302Z,100525.47
2023-04-15T07:25:14.014Z,100532.81
2023-04-15T07:29:14.882Z,100537.97
2023-04-15T07:33:17.791Z,100544.53
2023-04-15T07:37:21.090Z,100556.06
2023-04-15T07:41:26.853Z,100565.66
2023-04-15T07:45:27.804Z,100573.47
2023-04-15T07:49:32.441Z,100575.75
2023-04-15T07:53:33.904Z,100583.06
2023-04-15T07:57:35.257Z,100586.47
2023-04-15T08:01:48.344Z,100595.38
2023-04-15T08:05:56.830Z,100601.19
2023-04-15T08:10:01.928Z,100604.81
2023-04-15T08:14:03.296Z,100609.97
2023-04-15T08:18:03.960Z,100624.34
2023-04-15T08:22:15.621Z,100616.78
2023-04-15T08:26:25.417Z,100620.06
2023-04-15T08:30:28.721Z,100628.28
2023-04-15T08:34:36.424Z,100623.00
2023-04-15T08:38:43.440Z,100623.53
2023-04-15T08:42:57.388Z,100626.38
2023-04-15T08:46:59.337Z,100627.72
2023-04-15T08:51:03.783Z,100623.91
2023-04-15T08:55:10.771Z,100627.94
2023-04-15T08:59:11.971Z,100627.16
2023-04-15T09:03:12.185Z,100636.03
2023-04-15T09:07:13.106Z,100633.53
2023-04-15T09:11:15.681Z,100632.25
2023-04-15T09:15:31.493Z,100633.84
2023-04-15T09:20:21.910Z,100630.13
2023-04-15T09:24:26.637Z,100636.88
2023-04-15T09:28:49.296Z,100628.66
2023-04-15T09:32:59.402Z,100630.09
2023-04-15T09:37:11.778Z,100633.63
2023-04-15T09:41:21.125Z,100636.38
2023-04-15T09:45:30.572Z,100633.47
2023-04-15T09:49:43.775Z,100626.97
2023-04-15T09:54:00.214Z,100610.97
2023-04-15T10:02:50.769Z,100618.00
2023-04-15T10:06:54.908Z,100608.19
2023-04-15T10:10:56.454Z,100614.13
2023-04-15T10:15:09.578Z,100606.13
2023-04-15T10:19:31.638Z,100611.63
2023-04-15T10:33:06.631Z,100600.09
2023-04-15T10:37:29.615Z,100606.53
2023-04-15T10:42:10.907Z,100618.22
2023-04-15T10:46:29.380Z,100610.47
2023-04-15T10:50:30.106Z,100609.25
2023-04-15T10:54:49.684Z,100601.13
2023-04-15T10:59:13.573Z,100612.00
2023-04-15T11:03:43.160Z,100601.00
2023-04-15T11:07:47.203Z,100601.75
2023-04-15T11:12:16.432Z,100605.97
2023-04-15T11:16:18.871Z,100610.88
2023-04-15T11:20:25.991Z,100605.78
2023-04-15T11:24:32.472Z,100597.25
2023-04-15T11:28:34.804Z,100598.78
2023-04-15T11:32:47.569Z,100597.03
2023-04-15T11:37:12.331Z,100601.34
2023-04-15T11:41:17.489Z,100598.75
2023-04-15T11:45:34.962Z,100601.16
2023-04-15T11:49:58.469Z,100599.34
2023-04-15T11:54:09.246Z,100605.09
2023-04-15T11:58:30.977Z,100598.16
2023-04-15T12:02:48.706Z,100593.56
2023-04-15T12:06:51.158Z,100593.13
2023-04-15T12:10:50.878Z,100580.41
2023-04-15T12:15:00.463Z,100572.75
2023-04-15T12:19:30.820Z,100573.25
2023-04-15T12:28:20.849Z,100569.50
2023-04-15T12:37:52.548Z,100562.22
2023-04-15T12:42:20.240Z,100554.97
2023-04-15T12:46:27.846Z,100558.84
2023-04-15T12:50:31.385Z,100561.00
2023-04-15T12:54:44.710Z,100559.72
2023-04-15T12:59:02.014Z,100557.16
2023-04-15T13:03:11.610Z,100563.56
2023-04-15T13:07:43.158Z,100561.78
2023-04-15T13:11:52.683Z,100559.41
2023-04-15T13:20:19.771Z,100576.66
2023-04-15T13:24:40.152Z,100580.25
2023-04-15T13:28:50.036Z,100570.22
2023-04-15T13:33:21.618Z,100568.88
2023-04-15T13:37:46.721Z,100577.31
2023-04-15T13:42:15.520Z,100568.94
2023-04-15T13:46:27.896Z,100582.22
2023-04-15T13:50:49.852Z,100573.84
2023-04-15T13:55:22.389Z,100579.19
2023-04-15T14:00:03.352Z,100579.97
2023-04-15T14:04:26.379Z,100583.09
2023-04-15T14:08:48.861Z,100575.53
2023-04-15T14:13:18.496Z,100577.88
2023-04-15T14:17:51.524Z,100578.84
2023-04-15T14:22:07.882Z,100577.47
2023-04-15T14:26:47.140Z,100581.94
2023-04-15T14:31:14.012Z,100586.28
2023-04-15T14:36:03.343Z,100590.94
2023-04-15T14:40:52.930Z,100593.44
2023-04-15T14:45:20.105Z,100592.00
2023-04-15T14:49:33.793Z,100591.31
2023-04-15T14:53:46.724Z,100598.88
2023-04-15T14:57:58.280Z,100598.47
2023-04-15T15:02:04.587Z,100606.91
2023-04-15T15:06:32.134Z,100611.84
2023-04-15T15:10:58.208Z,100614.31
2023-04-15T15:20:10.250Z,100613.94
2023-04-15T15:24:37.419Z,100616.81
2023-04-15T15:28:43.460Z,100615.44
2023-04-15T15:32:54.595Z,100614.56
2023-04-15T15:37:02.780Z,100619.28
2023-04-15T15:41:12.316Z,100610.75
2023-04-15T15:45:27.726Z,100606.72
2023-04-15T15:49:31.785Z,100603.88
2023-04-15T15:53:32.506Z,100600.38
2023-04-15T15:57:34.627Z,100597.31
2023-04-15T16:01:39.373Z,100593.97
2023-04-15T16:05:44.266Z,100587.56
2023-04-15T16:09:49.802Z,100588.41
2023-04-15T16:14:10.566Z,100589.97
2023-04-15T16:18:34.582Z,100580.56
2023-04-15T16:22:45.042Z,100580.66
2023-04-15T16:27:02.990Z,100575.94
2023-04-15T16:31:08.438Z,100576.91
2023-04-15T16:35:27.649Z,100574.53
2023-04-15T16:39:46.839Z,100581.59
2023-04-15T16:43:53.389Z,100579.34
2023-04-15T16:47:56.754Z,100567.09
2023-04-15T16:51:59.794Z,100579.31
2023-04-15T16:56:00.045Z,100585.03
2023-04-15T17:00:00.448Z,100589.03
2023-04-15T17:04:05.394Z,100595.69
2023-04-15T17:08:06.328Z,100597.72
2023-04-15T17:12:06.786Z,100592.81
2023-04-15T17:16:06.533Z,100594.38
2023-04-15T17:20:08.760Z,100608.16
2023-04-15T17:24:08.607Z,100610.59
2023-04-15T17:28:09.140Z,100619.75
2023-04-15T17:32:11.130Z,100621.34
2023-04-15T17:36:14.729Z,100629.84
2023-04-15T17:40:29.301Z,100639.25
2023-04-15T17:44:31.173Z,100646.56
2023-04-15T17:48:37.839Z,100643.41
2023-04-15T17:52:44.830Z,100650.56
2023-04-15T17:56:49.115Z,100643.50
2023-04-15T18:00:49.915Z,100654.19
2023-04-15T18:04:53.884Z,100656.59
2023-04-15T18:08:59.392Z,100660.25
2023-04-15T18:13:03.601Z,100661.34
2023-04-15T18:17:07.535Z,100660.16
2023-04-15T18:21:18.112Z,100672.00
2023-04-15T18:25:22.744Z,100668.88
2023-04-15T18:29:26.535Z,100672.69
2023-04-15T18:33:31.718Z,100681.41
2023-04-15T18:37:38.397Z,100678.34
2023-04-15T18:41:41.623Z,100680.47
2023-04-15T18:45:41.942Z,100692.69
2023-04-15T18:50:09.810Z,100687.56
2023-04-15T18:54:11.254Z,100690.25
2023-04-15T18:58:13.216Z,100697.38
2023-04-15T19:02:13.407Z,100692.47
2023-04-15T19:06:20.510Z,100696.16
2023-04-15T19:10:24.731Z,100702.50
2023-04-15T19:14:34.129Z,100692.97
2023-04-15T19:18:39.958Z,100697.59
2023-04-15T19:22:50.789Z,100696.13
2023-04-15T19:26:52.690Z,100698.28
2023-04-15T19:31:00.669Z,100675.91
2023-04-15T19:35:03.882Z,100690.78
2023-04-15T19:39:05.422Z,100695.41
2023-04-15T19:43:05.619Z,100690.09
2023-04-15T19:47:07.639Z,100698.16
2023-04-15T19:51:11.155Z,100700.97
2023-04-15T19:55:12.616Z,100696.44
2023-04-15T19:59:32.329Z,100698.56
2023-04-15T20:03:36.776Z,100700.59
2023-04-15T20:07:42.866Z,100698.09
2023-04-15T20:12:09.621Z,100700.94
2023-04-15T20:16:12.396Z,100702.50
2023-04-15T20:20:14.767Z,100692.19
2023-04-15T20:24:24.213Z,100705.13
2023-04-15T20:28:28.826Z,100706.78
2023-04-15T20:32:32.087Z,100705.84
2023-04-15T20:36:34.635Z,100698.75
2023-04-15T20:40:41.881Z,100697.91
2023-04-15T20:44:44.900Z,100704.19
2023-04-15T20:48:49.271Z,100703.22
2023-04-15T20:52:54.479Z,100700.53
2023-04-15T20:56:54.243Z,100701.41
2023-04-15T21:00:58.693Z,100699.66
2023-04-15T21:04:59.290Z,100701.41
2023-04-15T21:09:07.373Z,100698.09
2023-04-15T21:13:09.198Z,100699.94
2023-04-15T21:17:11.159Z,100699.09
2023-04-15T21:21:14.657Z,100698.41
2023-04-15T21:25:17.633Z,100700.44
2023-04-15T21:29:31.139Z,100693.66
2023-04-15T21:33:37.493Z,100711.41
2023-04-15T21:37:41.470Z,100703.66
2023-04-15T21:41:51.340Z,100705.50
2023-04-15T21:46:23.899Z,100705.56
2023-04-15T21:50:35.499Z,100699.69
2023-04-15T21:54:52.220Z,100692.78
2023-04-15T21:59:09.153Z,100694.59
2023-04-15T22:03:39.801Z,100706.91
2023-04-15T22:07:46.200Z,100701.69
2023-04-15T22:11:54.909Z,100695.66
2023-04-15T22:16:23.979Z,100701.09
2023-04-15T22:20:30.364Z,100701.22
2023-04-15T22:24:50.803Z,100696.97
2023-04-15T22:29:29.314Z,100698.78
2023-04-15T22:33:39.704Z,100691.84
2023-04-15T22:37:52.190Z,100689.13
2023-04-15T22:41:57.067Z,100688.25
2023-04-15T22:45:58.234Z,100682.91
2023-04-15T22:50:04.489Z,100682.88
2023-04-15T22:54:10.565Z,100681.03
2023-04-15T22:58:11.408Z,100672.19
2023-04-15T23:02:13.832Z,100669.53
2023-04-15T23:06:25.181Z,100677.44
2023-04-15T23:10:27.975Z,100677.38
2023-04-15T23:14:33.118Z,100670.38
2023-04-15T23:18:33.352Z,100669.66
2023-04-15T23:22:39.010Z,100668.91
2023-04-15T23:26:45.080Z,100668.22
2023-04-15T23:30:46.952Z,100669.97
2023-04-15T23:34:50.770Z,100673.41
2023-04-15T23:39:16.089Z,100670.75
2023-04-15T23:43:17.957Z,100668.91
2023-04-15T23:47:23.111Z,100660.97
2023-04-15T23:51:23.953Z,100653.97
2023-04-15T23:55:33.296Z,100649.56
2023-04-15T23:59:38.246Z,100653.06
